sensor_id;sensor_type;location;lat;lon;timestamp;pressure;altitude;pressure_sealevel;temperature;humidity
29169;BME280;16219;42.864;23.360;2023-09-08T00:01:22;96360.91;;;19.64;100.00
29169;BME280;16219;42.864;23.360;2023-09-08T00:03:49;96361.50;;;19.57;100.00
29169;BME280;16219;42.864;23.360;2023-09-08T00:06:16;96351.78;;;19.49;100.00
29169;BME280;16219;42.864;23.360;2023-09-08T00:08:44;96361.72;;;19.48;100.00
29169;BME280;16219;42.864;23.360;2023-09-08T00:11:11;96364.41;;;19.48;100.00
29169;BME280;16219;42.864;23.360;2023-09-08T00:13:38;96367.81;;;19.45;100.00
29169;BME280;16219;42.864;23.360;2023-09-08T00:16:06;96361.75;;;19.29;100.00
29169;BME280;16219;42.864;23.360;2023-09-08T00:18:35;96367.50;;;19.31;100.00
29169;BME280;16219;42.864;23.360;2023-09-08T00:21:02;96367.78;;;19.26;100.00
29169;BME280;16219;42.864;23.360;2023-09-08T00:23:29;96369.47;;;19.15;100.00
29169;BME280;16219;42.864;23.360;2023-09-08T00:25:56;96377.41;;;19.11;100.00
29169;BME280;16219;42.864;23.360;2023-09-08T00:28:24;96366.16;;;19.02;100.00
29169;BME280;16219;42.864;23.360;2023-09-08T00:30:51;96379.03;;;18.96;100.00
29169;BME280;16219;42.864;23.360;2023-09-08T00:33:19;96364.81;;;18.92;100.00
29169;BME280;16219;42.864;23.360;2023-09-08T00:35:49;96334.47;;;18.69;100.00
29169;BME280;16219;42.864;23.360;2023-09-08T00:38:16;96362.09;;;18.73;100.00
29169;BME280;16219;42.864;23.360;2023-09-08T00:40:43;96377.44;;;18.76;100.00
29169;BME280;16219;42.864;23.360;2023-09-08T00:43:10;96369.50;;;18.64;100.00
29169;BME280;16219;42.864;23.360;2023-09-08T00:45:41;96335.00;;;18.23;100.00
29169;BME280;16219;42.864;23.360;2023-09-08T00:48:09;96369.63;;;18.36;100.00
29169;BME280;16219;42.864;23.360;2023-09-08T00:50:38;96321.13;;;18.18;100.00
29169;BME280;16219;42.864;23.360;2023-09-08T00:53:06;96360.34;;;18.14;100.00
29169;BME280;16219;42.864;23.360;2023-09-08T00:55:34;96374.03;;;18.28;100.00
29169;BME280;16219;42.864;23.360;2023-09-08T00:58:02;96379.44;;;18.32;100.00
29169;BME280;16219;42.864;23.360;2023-09-08T01:00:29;96375.84;;;18.24;100.00
29169;BME280;16219;42.864;23.360;2023-09-08T01:02:57;96366.78;;;18.13;100.00
29169;BME280;16219;42.864;23.360;2023-09-08T01:05:24;96345.94;;;18.03;100.00
29169;BME280;16219;42.864;23.360;2023-09-08T01:07:53;96378.06;;;18.06;100.00
29169;BME280;16219;42.864;23.360;2023-09-08T01:10:21;96351.34;;;17.90;100.00
29169;BME280;16219;42.864;23.360;2023-09-08T01:12:48;96367.47;;;18.10;100.00
29169;BME280;16219;42.864;23.360;2023-09-08T01:15:16;96343.31;;;17.74;100.00
29169;BME280;16219;42.864;23.360;2023-09-08T01:17:43;96365.50;;;17.63;100.00
29169;BME280;16219;42.864;23.360;2023-09-08T01:20:15;96381.13;;;17.92;100.00
29169;BME280;16219;42.864;23.360;2023-09-08T01:23:20;96370.03;;;17.90;100.00
29169;BME280;16219;42.864;23.360;2023-09-08T01:25:53;96372.88;;;17.82;100.00
29169;BME280;16219;42.864;23.360;2023-09-08T01:28:21;96377.00;;;17.79;100.00
29169;BME280;16219;42.864;23.360;2023-09-08T01:30:49;96362.22;;;17.69;100.00
29169;BME280;16219;42.864;23.360;2023-09-08T01:33:18;96379.00;;;17.70;100.00
29169;BME280;16219;42.864;23.360;2023-09-08T01:35:45;96371.97;;;17.49;100.00
29169;BME280;16219;42.864;23.360;2023-09-08T01:38:13;96379.16;;;17.61;100.00
29169;BME280;16219;42.864;23.360;2023-09-08T01:40:40;96370.22;;;17.69;100.00
29169;BME280;16219;42.864;23.360;2023-09-08T01:43:08;96376.69;;;17.68;100.00
29169;BME280;16219;42.864;23.360;2023-09-08T01:45:36;96377.16;;;17.42;100.00
29169;BME280;16219;42.864;23.360;2023-09-08T01:48:03;96342.28;;;17.35;100.00
29169;BME280;16219;42.864;23.360;2023-09-08T01:50:30;96368.41;;;17.58;100.00
29169;BME280;16219;42.864;23.360;2023-09-08T01:52:58;96324.78;;;17.22;100.00
29169;BME280;16219;42.864;23.360;2023-09-08T01:55:25;96347.84;;;17.30;100.00
29169;BME280;16219;42.864;23.360;2023-09-08T01:57:52;96364.34;;;17.48;100.00
29169;BME280;16219;42.864;23.360;2023-09-08T02:00:21;96360.38;;;17.42;100.00
29169;BME280;16219;42.864;23.360;2023-09-08T02:02:48;96366.38;;;17.39;100.00
29169;BME280;16219;42.864;23.360;2023-09-08T02:05:15;96364.03;;;17.37;100.00
29169;BME280;16219;42.864;23.360;2023-09-08T02:07:42;96360.97;;;17.23;100.00
29169;BME280;16219;42.864;23.360;2023-09-08T02:10:10;96359.00;;;17.20;100.00
29169;BME280;16219;42.864;23.360;2023-09-08T02:12:37;96362.53;;;17.24;100.00
29169;BME280;16219;42.864;23.360;2023-09-08T02:15:05;96311.31;;;16.90;100.00
29169;BME280;16219;42.864;23.360;2023-09-08T02:17:34;96360.72;;;17.00;100.00
29169;BME280;16219;42.864;23.360;2023-09-08T02:20:02;96334.25;;;16.79;100.00
29169;BME280;16219;42.864;23.360;2023-09-08T02:22:29;96361.03;;;17.11;100.00
29169;BME280;16219;42.864;23.360;2023-09-08T02:24:57;96361.25;;;17.06;100.00
29169;BME280;16219;42.864;23.360;2023-09-08T02:27:25;96360.84;;;17.04;100.00
29169;BME280;16219;42.864;23.360;2023-09-08T02:29:53;96332.44;;;16.71;100.00
29169;BME280;16219;42.864;23.360;2023-09-08T02:32:40;96364.09;;;16.85;100.00
29169;BME280;16219;42.864;23.360;2023-09-08T02:35:10;96362.53;;;16.59;100.00
29169;BME280;16219;42.864;23.360;2023-09-08T02:37:38;96353.13;;;16.74;100.00
29169;BME280;16219;42.864;23.360;2023-09-08T02:40:07;96344.53;;;16.68;100.00
29169;BME280;16219;42.864;23.360;2023-09-08T02:42:35;96362.53;;;16.84;100.00
29169;BME280;16219;42.864;23.360;2023-09-08T02:45:03;96360.00;;;16.75;100.00
29169;BME280;16219;42.864;23.360;2023-09-08T02:47:30;96343.00;;;16.67;100.00
29169;BME280;16219;42.864;23.360;2023-09-08T02:50:00;96345.44;;;16.72;100.00
29169;BME280;16219;42.864;23.360;2023-09-08T02:52:28;96357.75;;;16.77;100.00
29169;BME280;16219;42.864;23.360;2023-09-08T02:54:55;96354.00;;;16.54;100.00
29169;BME280;16219;42.864;23.360;2023-09-08T02:57:24;96335.59;;;16.36;100.00
29169;BME280;16219;42.864;23.360;2023-09-08T02:59:52;96354.53;;;16.59;100.00
29169;BME280;16219;42.864;23.360;2023-09-08T03:02:22;96360.44;;;16.40;100.00
29169;BME280;16219;42.864;23.360;2023-09-08T03:04:50;96301.53;;;16.05;100.00
29169;BME280;16219;42.864;23.360;2023-09-08T03:07:19;96358.75;;;16.48;100.00
29169;BME280;16219;42.864;23.360;2023-09-08T03:09:47;96343.59;;;16.48;100.00
29169;BME280;16219;42.864;23.360;2023-09-08T03:12:14;96309.28;;;16.35;100.00
29169;BME280;16219;42.864;23.360;2023-09-08T03:14:41;96350.69;;;16.57;100.00
29169;BME280;16219;42.864;23.360;2023-09-08T03:17:09;96346.91;;;16.45;100.00
29169;BME280;16219;42.864;23.360;2023-09-08T03:19:36;96345.13;;;16.37;100.00
29169;BME280;16219;42.864;23.360;2023-09-08T03:22:03;96327.84;;;16.31;100.00
29169;BME280;16219;42.864;23.360;2023-09-08T03:24:32;96306.41;;;16.15;100.00
29169;BME280;16219;42.864;23.360;2023-09-08T03:27:00;96292.75;;;15.92;100.00
29169;BME280;16219;42.864;23.360;2023-09-08T03:29:28;96320.94;;;16.18;100.00
29169;BME280;16219;42.864;23.360;2023-09-08T03:31:55;96326.94;;;16.15;100.00
29169;BME280;16219;42.864;23.360;2023-09-08T03:34:23;96339.47;;;16.27;100.00
29169;BME280;16219;42.864;23.360;2023-09-08T03:36:53;96333.28;;;16.10;100.00
29169;BME280;16219;42.864;23.360;2023-09-08T03:39:21;96339.03;;;16.12;100.00
29169;BME280;16219;42.864;23.360;2023-09-08T03:41:49;96330.22;;;15.87;100.00
29169;BME280;16219;42.864;23.360;2023-09-08T03:44:17;96316.34;;;15.69;100.00
29169;BME280;16219;42.864;23.360;2023-09-08T03:46:44;96328.69;;;15.98;100.00
29169;BME280;16219;42.864;23.360;2023-09-08T03:49:11;96326.25;;;15.93;100.00
29169;BME280;16219;42.864;23.360;2023-09-08T03:51:38;96330.88;;;15.84;100.00
29169;BME280;16219;42.864;23.360;2023-09-08T03:54:06;96339.09;;;15.91;100.00
29169;BME280;16219;42.864;23.360;2023-09-08T03:56:33;96268.94;;;15.38;100.00
29169;BME280;16219;42.864;23.360;2023-09-08T03:59:05;96275.81;;;15.39;100.00
29169;BME280;16219;42.864;23.360;2023-09-08T04:01:32;96340.16;;;15.66;100.00
29169;BME280;16219;42.864;23.360;2023-09-08T04:03:59;96297.72;;;15.36;100.00
29169;BME280;16219;42.864;23.360;2023-09-08T04:06:26;96343.53;;;15.54;100.00
29169;BME280;16219;42.864;23.360;2023-09-08T04:08:54;96337.00;;;15.52;100.00
29169;BME280;16219;42.864;23.360;2023-09-08T04:11:21;96337.78;;;15.52;100.00
29169;BME280;16219;42.864;23.360;2023-09-08T04:13:48;96302.56;;;15.22;100.00
29169;BME280;16219;42.864;23.360;2023-09-08T04:16:19;96324.44;;;15.40;100.00
29169;BME280;16219;42.864;23.360;2023-09-08T04:18:47;96294.38;;;15.27;100.00
29169;BME280;16219;42.864;23.360;2023-09-08T04:21:14;96340.53;;;15.43;100.00
29169;BME280;16219;42.864;23.360;2023-09-08T04:23:42;96330.41;;;15.37;100.00
29169;BME280;16219;42.864;23.360;2023-09-08T04:26:09;96351.81;;;15.40;100.00
29169;BME280;16219;42.864;23.360;2023-09-08T04:28:36;96361.38;;;15.54;100.00
29169;BME280;16219;42.864;23.360;2023-09-08T04:31:04;96350.03;;;15.65;100.00
29169;BME280;16219;42.864;23.360;2023-09-08T04:33:33;96343.72;;;15.70;100.00
29169;BME280;16219;42.864;23.360;2023-09-08T04:36:00;96352.50;;;15.83;100.00
29169;BME280;16219;42.864;23.360;2023-09-08T04:38:27;96348.97;;;15.91;100.00
29169;BME280;16219;42.864;23.360;2023-09-08T04:40:55;96370.28;;;16.03;100.00
29169;BME280;16219;42.864;23.360;2023-09-08T04:43:22;96374.06;;;16.02;100.00
29169;BME280;16219;42.864;23.360;2023-09-08T04:45:50;96311.38;;;15.68;100.00
29169;BME280;16219;42.864;23.360;2023-09-08T04:48:17;96325.38;;;15.89;100.00
29169;BME280;16219;42.864;23.360;2023-09-08T04:50:46;96372.72;;;16.08;100.00
29169;BME280;16219;42.864;23.360;2023-09-08T04:53:13;96372.88;;;16.24;100.00
29169;BME280;16219;42.864;23.360;2023-09-08T04:55:40;96367.09;;;16.34;100.00
29169;BME280;16219;42.864;23.360;2023-09-08T04:58:08;96365.97;;;16.47;100.00
29169;BME280;16219;42.864;23.360;2023-09-08T05:00:37;96325.16;;;16.31;100.00
29169;BME280;16219;42.864;23.360;2023-09-08T05:03:06;96359.63;;;16.64;100.00
29169;BME280;16219;42.864;23.360;2023-09-08T05:05:33;96365.84;;;16.68;100.00
29169;BME280;16219;42.864;23.360;2023-09-08T05:08:02;96357.56;;;16.82;100.00
29169;BME280;16219;42.864;23.360;2023-09-08T05:10:30;96374.59;;;17.06;100.00
29169;BME280;16219;42.864;23.360;2023-09-08T05:12:57;96372.13;;;17.13;100.00
29169;BME280;16219;42.864;23.360;2023-09-08T05:15:26;96342.38;;;16.98;100.00
29169;BME280;16219;42.864;23.360;2023-09-08T05:17:54;96360.34;;;17.14;100.00
29169;BME280;16219;42.864;23.360;2023-09-08T05:20:22;96377.81;;;17.39;100.00
29169;BME280;16219;42.864;23.360;2023-09-08T05:22:50;96344.75;;;17.28;100.00
29169;BME280;16219;42.864;23.360;2023-09-08T05:25:19;96372.78;;;17.50;100.00
29169;BME280;16219;42.864;23.360;2023-09-08T05:27:46;96316.44;;;17.23;100.00
29169;BME280;16219;42.864;23.360;2023-09-08T05:30:15;96335.44;;;17.50;100.00
29169;BME280;16219;42.864;23.360;2023-09-08T05:32:43;96340.69;;;17.62;100.00
29169;BME280;16219;42.864;23.360;2023-09-08T05:35:10;96362.28;;;17.85;100.00
29169;BME280;16219;42.864;23.360;2023-09-08T05:37:39;96341.53;;;17.79;100.00
29169;BME280;16219;42.864;23.360;2023-09-08T05:40:08;96368.06;;;18.03;100.00
29169;BME280;16219;42.864;23.360;2023-09-08T05:42:37;96359.72;;;18.20;100.00
29169;BME280;16219;42.864;23.360;2023-09-08T05:45:06;96339.22;;;18.09;100.00
29169;BME280;16219;42.864;23.360;2023-09-08T05:47:33;96349.72;;;18.33;100.00
29169;BME280;16219;42.864;23.360;2023-09-08T05:50:02;96315.25;;;18.28;100.00
29169;BME280;16219;42.864;23.360;2023-09-08T05:52:30;96352.50;;;18.56;100.00
29169;BME280;16219;42.864;23.360;2023-09-08T05:54:59;96345.28;;;18.72;100.00
29169;BME280;16219;42.864;23.360;2023-09-08T05:57:26;96349.72;;;18.84;100.00
29169;BME280;16219;42.864;23.360;2023-09-08T05:59:55;96330.66;;;18.86;100.00
29169;BME280;16219;42.864;23.360;2023-09-08T06:02:22;96348.16;;;18.99;100.00
29169;BME280;16219;42.864;23.360;2023-09-08T06:04:50;96341.66;;;19.19;100.00
29169;BME280;16219;42.864;23.360;2023-09-08T06:07:18;96339.50;;;19.25;100.00
29169;BME280;16219;42.864;23.360;2023-09-08T06:09:45;96348.94;;;19.38;100.00
29169;BME280;16219;42.864;23.360;2023-09-08T06:12:13;96342.28;;;19.52;100.00
29169;BME280;16219;42.864;23.360;2023-09-08T06:14:40;96342.16;;;19.64;100.00
29169;BME280;16219;42.864;23.360;2023-09-08T06:17:10;96351.72;;;19.84;100.00
29169;BME280;16219;42.864;23.360;2023-09-08T06:19:37;96309.38;;;19.70;100.00
29169;BME280;16219;42.864;23.360;2023-09-08T06:22:05;96356.88;;;20.19;100.00
29169;BME280;16219;42.864;23.360;2023-09-08T06:24:33;96357.47;;;20.32;100.00
29169;BME280;16219;42.864;23.360;2023-09-08T06:27:01;96350.66;;;20.38;100.00
29169;BME280;16219;42.864;23.360;2023-09-08T06:29:28;96346.19;;;20.46;98.54
29169;BME280;16219;42.864;23.360;2023-09-08T06:31:56;96355.69;;;20.66;99.72
29169;BME280;16219;42.864;23.360;2023-09-08T06:34:26;96365.50;;;20.82;94.11
29169;BME280;16219;42.864;23.360;2023-09-08T06:36:53;96355.19;;;20.84;94.87
29169;BME280;16219;42.864;23.360;2023-09-08T06:39:22;96332.22;;;20.86;91.66
29169;BME280;16219;42.864;23.360;2023-09-08T06:41:49;96341.53;;;20.96;96.01
29169;BME280;16219;42.864;23.360;2023-09-08T06:44:19;96354.50;;;21.20;96.37
29169;BME280;16219;42.864;23.360;2023-09-08T06:46:46;96330.97;;;21.10;92.60
29169;BME280;16219;42.864;23.360;2023-09-08T06:49:14;96367.91;;;21.51;93.20
29169;BME280;16219;42.864;23.360;2023-09-08T06:51:42;96362.69;;;21.65;87.68
29169;BME280;16219;42.864;23.360;2023-09-08T06:54:10;96370.91;;;21.79;90.25
29169;BME280;16219;42.864;23.360;2023-09-08T06:56:41;96374.88;;;21.96;88.63
29169;BME280;16219;42.864;23.360;2023-09-08T06:59:09;96368.91;;;22.10;85.58
29169;BME280;16219;42.864;23.360;2023-09-08T07:01:38;96334.69;;;22.07;83.67
29169;BME280;16219;42.864;23.360;2023-09-08T07:04:07;96372.59;;;22.35;82.91
29169;BME280;16219;42.864;23.360;2023-09-08T07:06:35;96369.59;;;22.48;84.33
29169;BME280;16219;42.864;23.360;2023-09-08T07:09:06;96368.88;;;22.54;80.92
29169;BME280;16219;42.864;23.360;2023-09-08T07:11:34;96374.34;;;22.65;80.98
29169;BME280;16219;42.864;23.360;2023-09-08T07:14:02;96372.13;;;22.81;81.40
29169;BME280;16219;42.864;23.360;2023-09-08T07:16:30;96346.38;;;22.84;77.80
29169;BME280;16219;42.864;23.360;2023-09-08T07:18:57;96307.16;;;22.76;75.76
29169;BME280;16219;42.864;23.360;2023-09-08T07:21:27;96359.69;;;23.25;75.85
29169;BME280;16219;42.864;23.360;2023-09-08T07:23:54;96360.44;;;23.18;72.51
29169;BME280;16219;42.864;23.360;2023-09-08T07:26:24;96324.22;;;23.01;78.83
29169;BME280;16219;42.864;23.360;2023-09-08T07:28:52;96353.59;;;23.42;73.94
29169;BME280;16219;42.864;23.360;2023-09-08T07:31:20;96355.13;;;23.43;72.74
29169;BME280;16219;42.864;23.360;2023-09-08T07:33:49;96324.28;;;23.12;73.91
29169;BME280;16219;42.864;23.360;2023-09-08T07:36:17;96355.97;;;23.58;77.03
29169;BME280;16219;42.864;23.360;2023-09-08T07:38:45;96354.88;;;23.73;75.21
29169;BME280;16219;42.864;23.360;2023-09-08T07:41:12;96356.44;;;23.88;69.64
29169;BME280;16219;42.864;23.360;2023-09-08T07:43:42;96358.00;;;24.00;71.75
29169;BME280;16219;42.864;23.360;2023-09-08T07:46:12;96363.78;;;24.16;67.76
29169;BME280;16219;42.864;23.360;2023-09-08T07:48:40;96349.16;;;24.17;66.99
29169;BME280;16219;42.864;23.360;2023-09-08T07:51:08;96346.84;;;24.05;63.80
29169;BME280;16219;42.864;23.360;2023-09-08T07:53:35;96346.81;;;24.16;70.92
29169;BME280;16219;42.864;23.360;2023-09-08T07:56:03;96345.28;;;24.29;67.60
29169;BME280;16219;42.864;23.360;2023-09-08T07:58:32;96342.22;;;24.27;61.89
29169;BME280;16219;42.864;23.360;2023-09-08T08:01:01;96340.69;;;24.19;67.43
29169;BME280;16219;42.864;23.360;2023-09-08T08:03:28;96343.38;;;24.48;61.08
29169;BME280;16219;42.864;23.360;2023-09-08T08:05:56;96336.06;;;24.52;63.24
29169;BME280;16219;42.864;23.360;2023-09-08T08:08:24;96339.91;;;24.65;60.89
29169;BME280;16219;42.864;23.360;2023-09-08T08:10:52;96335.22;;;24.76;60.44
29169;BME280;16219;42.864;23.360;2023-09-08T08:13:19;96348.31;;;24.96;66.58
29169;BME280;16219;42.864;23.360;2023-09-08T08:15:47;96349.41;;;25.20;64.49
29169;BME280;16219;42.864;23.360;2023-09-08T08:18:16;96342.44;;;25.29;58.61
29169;BME280;16219;42.864;23.360;2023-09-08T08:20:44;96345.53;;;25.24;57.34
29169;BME280;16219;42.864;23.360;2023-09-08T08:23:12;96358.28;;;25.20;57.72
29169;BME280;16219;42.864;23.360;2023-09-08T08:25:39;96334.78;;;25.10;56.27
29169;BME280;16219;42.864;23.360;2023-09-08T08:28:07;96346.28;;;25.32;59.26
29169;BME280;16219;42.864;23.360;2023-09-08T08:30:35;96338.13;;;25.39;57.85
29169;BME280;16219;42.864;23.360;2023-09-08T08:33:03;96337.34;;;25.46;56.80
29169;BME280;16219;42.864;23.360;2023-09-08T08:35:32;96315.00;;;25.38;53.84
29169;BME280;16219;42.864;23.360;2023-09-08T08:37:59;96329.22;;;25.49;54.28
29169;BME280;16219;42.864;23.360;2023-09-08T08:40:27;96330.38;;;25.48;54.21
29169;BME280;16219;42.864;23.360;2023-09-08T08:42:55;96335.84;;;25.37;55.90
29169;BME280;16219;42.864;23.360;2023-09-08T08:45:24;96322.66;;;25.47;55.67
29169;BME280;16219;42.864;23.360;2023-09-08T08:47:52;96329.13;;;25.63;56.93
29169;BME280;16219;42.864;23.360;2023-09-08T08:50:20;96304.16;;;25.41;52.29
29169;BME280;16219;42.864;23.360;2023-09-08T08:52:48;96338.03;;;25.60;54.12
29169;BME280;16219;42.864;23.360;2023-09-08T08:55:15;96325.72;;;25.49;54.47
29169;BME280;16219;42.864;23.360;2023-09-08T08:57:43;96324.97;;;25.48;52.86
29169;BME280;16219;42.864;23.360;2023-09-08T09:00:12;96328.81;;;25.51;54.52
29169;BME280;16219;42.864;23.360;2023-09-08T09:02:42;96331.13;;;25.52;52.85
29169;BME280;16219;42.864;23.360;2023-09-08T09:05:11;96309.09;;;25.57;54.50
29169;BME280;16219;42.864;23.360;2023-09-08T09:07:39;96315.34;;;25.43;53.89
29169;BME280;16219;42.864;23.360;2023-09-08T09:10:10;96318.28;;;25.71;54.43
29169;BME280;16219;42.864;23.360;2023-09-08T09:12:39;96311.75;;;25.61;52.11
29169;BME280;16219;42.864;23.360;2023-09-08T09:15:08;96322.53;;;25.72;52.99
29169;BME280;16219;42.864;23.360;2023-09-08T09:17:36;96321.00;;;25.67;53.66
29169;BME280;16219;42.864;23.360;2023-09-08T09:20:14;96276.81;;;25.32;52.20
29169;BME280;16219;42.864;23.360;2023-09-08T09:22:43;96317.06;;;25.82;54.19
29169;BME280;16219;42.864;23.360;2023-09-08T09:25:21;96323.22;;;25.86;50.97
29169;BME280;16219;42.864;23.360;2023-09-08T09:27:53;96321.75;;;25.75;51.48
29169;BME280;16219;42.864;23.360;2023-09-08T09:30:21;96296.28;;;25.68;51.23
29169;BME280;16219;42.864;23.360;2023-09-08T09:32:58;96302.41;;;25.76;51.30
29169;BME280;16219;42.864;23.360;2023-09-08T09:35:39;96323.19;;;25.90;50.30
29169;BME280;16219;42.864;23.360;2023-09-08T09:38:07;96319.31;;;25.91;50.64
29169;BME280;16219;42.864;23.360;2023-09-08T09:40:36;96296.59;;;25.81;50.40
29169;BME280;16219;42.864;23.360;2023-09-08T09:43:05;96309.38;;;25.77;51.04
29169;BME280;16219;42.864;23.360;2023-09-08T09:45:33;96312.81;;;25.81;49.52
29169;BME280;16219;42.864;23.360;2023-09-08T09:48:02;96307.41;;;25.81;49.84
29169;BME280;16219;42.864;23.360;2023-09-08T09:50:29;96317.91;;;25.68;49.18
29169;BME280;16219;42.864;23.360;2023-09-08T09:52:57;96304.06;;;25.56;49.43
29169;BME280;16219;42.864;23.360;2023-09-08T09:55:26;96306.47;;;25.43;49.29
29169;BME280;16219;42.864;23.360;2023-09-08T09:57:56;96299.94;;;25.40;50.35
29169;BME280;16219;42.864;23.360;2023-09-08T10:00:26;96301.81;;;25.43;51.73
29169;BME280;16219;42.864;23.360;2023-09-08T10:02:54;96294.88;;;25.46;51.81
29169;BME280;16219;42.864;23.360;2023-09-08T10:05:22;96271.88;;;25.16;51.34
29169;BME280;16219;42.864;23.360;2023-09-08T10:07:50;96303.94;;;24.93;51.08
29169;BME280;16219;42.864;23.360;2023-09-08T10:10:19;96288.19;;;24.84;51.32
29169;BME280;16219;42.864;23.360;2023-09-08T10:12:53;96268.44;;;25.09;53.24
29169;BME280;16219;42.864;23.360;2023-09-08T10:15:23;96274.91;;;25.26;52.15
29169;BME280;16219;42.864;23.360;2023-09-08T10:17:54;96274.91;;;25.29;51.45
29169;BME280;16219;42.864;23.360;2023-09-08T10:20:24;96284.06;;;25.50;51.73
29169;BME280;16219;42.864;23.360;2023-09-08T10:22:55;96264.84;;;25.37;51.78
29169;BME280;16219;42.864;23.360;2023-09-08T10:25:24;96272.03;;;25.58;51.67
29169;BME280;16219;42.864;23.360;2023-09-08T10:27:53;96271.59;;;25.70;51.40
29169;BME280;16219;42.864;23.360;2023-09-08T10:30:24;96246.13;;;25.64;51.61
29169;BME280;16219;42.864;23.360;2023-09-08T10:32:53;96266.88;;;25.81;51.74
29169;BME280;16219;42.864;23.360;2023-09-08T10:35:21;96278.13;;;25.69;51.43
29169;BME280;16219;42.864;23.360;2023-09-08T10:37:48;96246.75;;;25.27;51.48
29169;BME280;16219;42.864;23.360;2023-09-08T10:40:23;96267.97;;;25.28;52.42
29169;BME280;16219;42.864;23.360;2023-09-08T10:43:05;96266.84;;;25.22;53.00
29169;BME280;16219;42.864;23.360;2023-09-08T10:45:34;96271.97;;;24.95;53.01
29169;BME280;16219;42.864;23.360;2023-09-08T10:48:01;96262.00;;;24.74;52.35
29169;BME280;16219;42.864;23.360;2023-09-08T10:50:34;96248.19;;;24.51;54.71
29169;BME280;16219;42.864;23.360;2023-09-08T10:53:12;96269.59;;;25.01;54.08
29169;BME280;16219;42.864;23.360;2023-09-08T10:55:41;96270.38;;;25.12;53.83
29169;BME280;16219;42.864;23.360;2023-09-08T10:58:18;96242.97;;;25.10;55.60
29169;BME280;16219;42.864;23.360;2023-09-08T11:00:51;96279.38;;;25.57;52.17
29169;BME280;16219;42.864;23.360;2023-09-08T11:03:27;96266.97;;;25.67;51.05
29169;BME280;16219;42.864;23.360;2023-09-08T11:05:56;96264.72;;;25.55;51.92
29169;BME280;16219;42.864;23.360;2023-09-08T11:08:23;96238.16;;;25.42;51.09
29169;BME280;16219;42.864;23.360;2023-09-08T11:10:50;96266.19;;;25.70;53.11
29169;BME280;16219;42.864;23.360;2023-09-08T11:13:17;96258.84;;;25.67;51.25
29169;BME280;16219;42.864;23.360;2023-09-08T11:15:45;96256.06;;;25.81;52.23
29169;BME280;16219;42.864;23.360;2023-09-08T11:18:13;96256.44;;;25.83;51.80
29169;BME280;16219;42.864;23.360;2023-09-08T11:20:40;96251.19;;;25.62;51.78
29169;BME280;16219;42.864;23.360;2023-09-08T11:23:07;96255.31;;;25.81;52.21
29169;BME280;16219;42.864;23.360;2023-09-08T11:25:35;96196.88;;;25.42;51.25
29169;BME280;16219;42.864;23.360;2023-09-08T11:28:02;96230.59;;;25.75;50.87
29169;BME280;16219;42.864;23.360;2023-09-08T11:30:30;96253.69;;;25.87;50.49
29169;BME280;16219;42.864;23.360;2023-09-08T11:32:57;96251.84;;;25.80;51.81
29169;BME280;16219;42.864;23.360;2023-09-08T11:35:27;96222.13;;;25.73;50.84
29169;BME280;16219;42.864;23.360;2023-09-08T11:37:59;96224.03;;;25.76;51.01
29169;BME280;16219;42.864;23.360;2023-09-08T11:40:31;96234.25;;;26.03;53.27
29169;BME280;16219;42.864;23.360;2023-09-08T11:43:00;96233.31;;;26.20;51.99
29169;BME280;16219;42.864;23.360;2023-09-08T11:45:27;96232.53;;;26.23;51.73
29169;BME280;16219;42.864;23.360;2023-09-08T11:47:55;96239.84;;;26.26;51.42
29169;BME280;16219;42.864;23.360;2023-09-08T11:50:22;96201.72;;;26.13;50.47
29169;BME280;16219;42.864;23.360;2023-09-08T11:52:52;96206.16;;;26.34;50.41
29169;BME280;16219;42.864;23.360;2023-09-08T11:55:21;96211.34;;;26.56;50.06
29169;BME280;16219;42.864;23.360;2023-09-08T11:57:51;96224.19;;;26.48;51.36
29169;BME280;16219;42.864;23.360;2023-09-08T12:00:20;96199.09;;;26.40;51.25
29169;BME280;16219;42.864;23.360;2023-09-08T12:02:49;96213.41;;;26.45;50.81
29169;BME280;16219;42.864;23.360;2023-09-08T12:05:21;96199.41;;;26.50;52.85
29169;BME280;16219;42.864;23.360;2023-09-08T12:07:52;96200.16;;;26.84;50.66
29169;BME280;16219;42.864;23.360;2023-09-08T12:10:19;96205.03;;;26.97;51.10
29169;BME280;16219;42.864;23.360;2023-09-08T12:12:48;96195.63;;;27.05;51.50
29169;BME280;16219;42.864;23.360;2023-09-08T12:15:31;96209.06;;;27.15;48.85
29169;BME280;16219;42.864;23.360;2023-09-08T12:18:00;96196.72;;;27.14;51.78
29169;BME280;16219;42.864;23.360;2023-09-08T12:20:27;96190.59;;;27.07;51.26
29169;BME280;16219;42.864;23.360;2023-09-08T12:22:58;96196.63;;;27.18;50.45
29169;BME280;16219;42.864;23.360;2023-09-08T12:25:26;96182.47;;;27.10;50.05
29169;BME280;16219;42.864;23.360;2023-09-08T12:27:54;96183.22;;;27.11;51.29
29169;BME280;16219;42.864;23.360;2023-09-08T12:30:22;96173.09;;;27.15;50.27
29169;BME280;16219;42.864;23.360;2023-09-08T12:32:56;96183.75;;;27.26;50.84
29169;BME280;16219;42.864;23.360;2023-09-08T12:35:24;96175.69;;;27.22;49.53
29169;BME280;16219;42.864;23.360;2023-09-08T12:37:56;96173.22;;;27.04;50.53
29169;BME280;16219;42.864;23.360;2023-09-08T12:40:25;96173.50;;;26.83;49.96
29169;BME280;16219;42.864;23.360;2023-09-08T12:42:52;96185.56;;;26.78;51.50
29169;BME280;16219;42.864;23.360;2023-09-08T12:45:21;96171.47;;;26.90;51.00
29169;BME280;16219;42.864;23.360;2023-09-08T12:47:48;96170.88;;;27.06;52.96
29169;BME280;16219;42.864;23.360;2023-09-08T12:50:16;96161.28;;;27.02;50.45
29169;BME280;16219;42.864;23.360;2023-09-08T12:52:45;96165.84;;;27.05;49.21